createdAt,value
2023-06-12T00:00:13.701Z,3.83
2023-06-12T00:02:41.687Z,3.58
2023-06-12T00:05:11.053Z,3.75
2023-06-12T00:07:38.752Z,3.72
2023-06-12T00:10:07.269Z,3.55
2023-06-12T00:12:36.420Z,3.47
2023-06-12T00:15:04.237Z,3.40
2023-06-12T00:17:34.981Z,3.53
2023-06-12T00:20:02.732Z,4.00
2023-06-12T00:22:30.808Z,3.35
2023-06-12T00:24:58.618Z,3.90
2023-06-12T00:27:26.290Z,4.38
2023-06-12T00:29:55.365Z,3.47
2023-06-12T00:32:23.035Z,4.05
2023-06-12T00:34:50.718Z,3.70
2023-06-12T00:37:19.308Z,3.90
2023-06-12T00:39:47.479Z,3.65
2023-06-12T00:42:15.184Z,4.00
2023-06-12T00:44:42.830Z,3.42
2023-06-12T00:47:13.131Z,4.20
2023-06-12T00:49:41.194Z,3.92
2023-06-12T00:52:12.866Z,3.97
2023-06-12T00:54:41.249Z,3.80
2023-06-12T00:57:09.360Z,4.00
2023-06-12T00:59:37.682Z,3.95
2023-06-12T01:02:07.271Z,3.78
2023-06-12T01:04:38.206Z,3.80
2023-06-12T01:07:12.432Z,3.63
2023-06-12T01:09:48.751Z,3.65
2023-06-12T01:12:17.728Z,4.15
2023-06-12T01:14:47.488Z,3.95
2023-06-12T01:17:15.333Z,3.83
2023-06-12T01:19:44.796Z,4.18
2023-06-12T01:22:17.699Z,3.80
2023-06-12T01:25:14.628Z,3.97
2023-06-12T01:27:57.297Z,3.80
2023-06-12T01:30:43.232Z,3.90
2023-06-12T01:33:18.330Z,3.70
2023-06-12T01:35:49.040Z,3.78
2023-06-12T01:38:21.940Z,4.03
2023-06-12T01:40:50.537Z,3.97
2023-06-12T01:43:18.259Z,3.67
2023-06-12T01:45:46.192Z,3.93
2023-06-12T01:48:17.659Z,4.43
2023-06-12T01:50:45.426Z,3.83
2023-06-12T01:53:14.424Z,4.13
2023-06-12T01:55:42.545Z,4.23
2023-06-12T01:58:10.802Z,3.53
2023-06-12T02:00:38.480Z,4.07
2023-06-12T02:03:07.725Z,3.80
2023-06-12T02:05:36.794Z,4.07
2023-06-12T02:08:04.650Z,3.77
2023-06-12T02:10:32.298Z,4.25
2023-06-12T02:12:59.984Z,3.70
2023-06-12T02:15:29.466Z,3.83
2023-06-12T02:17:57.519Z,3.55
2023-06-12T02:20:25.248Z,4.00
2023-06-12T02:22:54.297Z,4.20
2023-06-12T02:25:22.189Z,4.00
2023-06-12T02:27:49.813Z,4.00
2023-06-12T02:30:17.522Z,4.17
2023-06-12T02:32:45.185Z,4.10
2023-06-12T02:35:12.837Z,4.37
2023-06-12T02:37:40.575Z,3.73
2023-06-12T02:40:11.326Z,4.43
2023-06-12T02:42:39.206Z,4.67
2023-06-12T02:45:08.061Z,4.47
2023-06-12T02:47:35.879Z,4.40
2023-06-12T02:50:03.710Z,3.83
2023-06-12T02:52:31.645Z,4.47
2023-06-12T02:54:59.299Z,4.27
2023-06-12T02:57:28.305Z,4.57
2023-06-12T02:59:55.987Z,4.57
2023-06-12T03:02:23.705Z,4.47
2023-06-12T03:04:51.488Z,4.00
2023-06-12T03:07:19.759Z,4.40
2023-06-12T03:09:47.829Z,4.80
2023-06-12T03:12:15.652Z,4.00
2023-06-12T03:14:45.460Z,4.00
2023-06-12T03:17:13.135Z,4.03
2023-06-12T03:19:40.779Z,4.03
2023-06-12T03:22:08.462Z,3.75
2023-06-12T03:24:38.376Z,3.95
2023-06-12T03:27:07.152Z,4.20
2023-06-12T03:29:34.887Z,4.70
2023-06-12T03:32:04.155Z,4.05
2023-06-12T03:34:32.931Z,4.13
2023-06-12T03:37:00.695Z,4.03
2023-06-12T03:39:28.431Z,4.47
2023-06-12T03:41:58.113Z,4.60
2023-06-12T03:44:25.976Z,3.92
2023-06-12T03:46:53.724Z,4.78
2023-06-12T03:49:24.259Z,4.55
2023-06-12T03:51:52.058Z,4.38
2023-06-12T03:54:20.677Z,4.78
2023-06-12T03:56:49.326Z,4.30
2023-06-12T03:59:17.295Z,4.78
2023-06-12T04:01:45.007Z,4.72
2023-06-12T04:04:12.851Z,4.47
2023-06-12T04:06:42.523Z,4.47
2023-06-12T04:09:13.715Z,4.30
2023-06-12T04:11:41.532Z,4.88
2023-06-12T04:14:09.871Z,4.45
2023-06-12T04:16:37.835Z,5.00
2023-06-12T04:19:05.717Z,4.32
2023-06-12T04:21:34.391Z,4.63
2023-06-12T04:24:04.784Z,4.03
2023-06-12T04:26:33.043Z,4.35
2023-06-12T04:29:03.541Z,4.97
2023-06-12T04:31:31.517Z,4.90
2023-06-12T04:33:59.996Z,4.50
2023-06-12T04:36:28.292Z,5.32
2023-06-12T04:38:58.013Z,4.95
2023-06-12T04:41:28.813Z,4.90
2023-06-12T04:44:00.178Z,5.05
2023-06-12T04:46:29.887Z,5.00
2023-06-12T04:48:57.973Z,4.80
2023-06-12T04:51:26.051Z,5.00
2023-06-12T04:53:56.336Z,4.93
2023-06-12T04:56:24.275Z,5.10
2023-06-12T04:58:53.384Z,4.95
2023-06-12T05:01:23.171Z,4.90
2023-06-12T05:03:51.402Z,5.20
2023-06-12T05:06:19.206Z,5.18
2023-06-12T05:08:46.880Z,5.18
2023-06-12T05:11:14.964Z,5.78
2023-06-12T05:13:42.949Z,5.28
2023-06-12T05:16:12.057Z,5.43
2023-06-12T05:18:39.731Z,5.70
2023-06-12T05:21:07.921Z,5.57
2023-06-12T05:23:35.802Z,5.25
2023-06-12T05:26:04.147Z,5.40
2023-06-12T05:28:31.829Z,4.47
2023-06-12T05:30:59.612Z,5.38
2023-06-12T05:33:28.701Z,4.95
2023-06-12T05:35:56.375Z,5.28
2023-06-12T05:38:24.195Z,5.28
2023-06-12T05:40:52.252Z,5.57
2023-06-12T05:43:20.070Z,5.90
2023-06-12T05:45:47.692Z,5.70
2023-06-12T05:48:15.830Z,5.65
2023-06-12T05:50:44.878Z,5.85
2023-06-12T05:53:12.600Z,6.07
2023-06-12T05:55:40.364Z,5.70
2023-06-12T05:58:08.119Z,5.82
2023-06-12T06:00:37.086Z,5.20
2023-06-12T06:03:05.795Z,6.03
2023-06-12T06:05:33.621Z,6.40
2023-06-12T06:08:02.665Z,6.25
2023-06-12T06:10:30.841Z,5.88
2023-06-12T06:12:58.714Z,6.00
2023-06-12T06:15:26.477Z,6.25
2023-06-12T06:17:54.161Z,6.15
2023-06-12T06:20:22.120Z,6.13
2023-06-12T06:22:49.939Z,5.45
2023-06-12T06:25:18.964Z,6.30
2023-06-12T06:27:46.704Z,5.90
2023-06-12T06:30:14.977Z,6.10
2023-06-12T06:32:43.003Z,5.75
2023-06-12T06:35:11.107Z,5.85
2023-06-12T06:37:39.021Z,6.28
2023-06-12T06:40:07.856Z,5.75
2023-06-12T06:42:37.090Z,5.93
2023-06-12T06:45:05.261Z,6.07
2023-06-12T06:47:33.019Z,6.10
2023-06-12T06:50:00.718Z,6.72
2023-06-12T06:52:28.466Z,6.05
2023-06-12T06:54:56.297Z,5.90
2023-06-12T06:57:24.947Z,6.32
2023-06-12T06:59:55.674Z,5.55
2023-06-12T07:02:24.005Z,5.70
2023-06-12T07:04:52.327Z,5.78
2023-06-12T07:07:20.085Z,6.40
2023-06-12T07:09:47.796Z,6.32
2023-06-12T07:12:15.645Z,6.10
2023-06-12T07:14:43.317Z,6.63
2023-06-12T07:17:12.384Z,5.93
2023-06-12T07:19:40.060Z,6.13
2023-06-12T07:22:07.789Z,5.45
2023-06-12T07:24:36.174Z,6.15
2023-06-12T07:27:04.143Z,5.60
2023-06-12T07:29:31.787Z,6.15
2023-06-12T07:31:59.503Z,5.65
2023-06-12T07:34:28.537Z,5.55
2023-06-12T07:36:57.212Z,5.85
2023-06-12T07:39:24.892Z,5.75
2023-06-12T07:41:52.856Z,5.97
2023-06-12T07:44:21.212Z,5.97
2023-06-12T07:46:49.377Z,6.13
2023-06-12T07:49:18.063Z,6.47
2023-06-12T07:51:47.130Z,6.20
2023-06-12T07:54:15.058Z,6.18
2023-06-12T07:56:43.894Z,5.75
2023-06-12T07:59:12.462Z,6.10
2023-06-12T08:01:40.375Z,5.72
2023-06-12T08:04:11.228Z,6.10
2023-06-12T08:06:39.839Z,5.78
2023-06-12T08:09:10.654Z,6.18
2023-06-12T08:11:38.580Z,6.15
2023-06-12T08:14:06.246Z,6.22
2023-06-12T08:16:34.053Z,6.88
2023-06-12T08:19:02.820Z,5.80
2023-06-12T08:21:30.981Z,5.93
2023-06-12T08:23:58.842Z,5.85
2023-06-12T08:26:28.015Z,5.45
2023-06-12T08:28:55.972Z,5.72
2023-06-12T08:31:24.922Z,5.50
2023-06-12T08:33:52.811Z,5.70
2023-06-12T08:36:20.632Z,5.50
2023-06-12T08:38:48.294Z,5.53
2023-06-12T08:41:19.990Z,5.20
2023-06-12T08:43:51.065Z,5.07
2023-06-12T08:46:20.570Z,5.75
2023-06-12T08:48:50.540Z,5.22
2023-06-12T08:51:19.053Z,5.22
2023-06-12T08:53:48.498Z,5.65
2023-06-12T08:56:16.561Z,5.47
2023-06-12T08:58:44.238Z,5.20
2023-06-12T09:01:15.840Z,5.28
2023-06-12T09:03:49.067Z,5.07
2023-06-12T09:06:20.043Z,4.82
2023-06-12T09:08:47.887Z,5.35
2023-06-12T09:11:15.562Z,4.95
2023-06-12T09:13:44.067Z,4.68
2023-06-12T09:16:14.509Z,4.60
2023-06-12T09:18:52.973Z,4.75
2023-06-12T09:21:23.612Z,4.50
2023-06-12T09:23:52.262Z,4.38
2023-06-12T09:26:23.010Z,4.57
2023-06-12T09:28:54.185Z,4.90
2023-06-12T09:31:23.519Z,4.60
2023-06-12T09:33:53.592Z,4.65
2023-06-12T09:36:22.681Z,4.20
2023-06-12T09:38:51.564Z,4.60
2023-06-12T09:41:23.270Z,4.95
2023-06-12T09:43:53.421Z,4.30
2023-06-12T09:46:27.338Z,4.53
2023-06-12T09:48:57.156Z,4.50
2023-06-12T09:51:25.388Z,4.55
2023-06-12T09:53:58.004Z,4.50
2023-06-12T09:56:26.843Z,4.50
2023-06-12T09:58:55.997Z,4.70
2023-06-12T10:01:27.325Z,4.97
2023-06-12T10:04:00.713Z,4.45
2023-06-12T10:06:29.285Z,4.28
2023-06-12T10:08:58.593Z,3.95
2023-06-12T10:11:27.305Z,4.53
2023-06-12T10:13:56.163Z,4.38
2023-06-12T10:16:27.299Z,4.40
2023-06-12T10:18:56.942Z,5.60
2023-06-12T10:21:25.338Z,5.78
2023-06-12T10:23:53.839Z,4.90
2023-06-12T10:26:23.468Z,4.35
2023-06-12T10:28:51.359Z,4.75
2023-06-12T10:31:20.343Z,4.25
2023-06-12T10:34:05.202Z,4.80
2023-06-12T10:36:41.777Z,4.40
2023-06-12T10:39:17.179Z,4.22
2023-06-12T10:41:58.870Z,4.55
2023-06-12T10:44:40.256Z,4.25
2023-06-12T10:47:19.247Z,4.20
2023-06-12T10:50:02.782Z,4.57
2023-06-12T10:52:30.850Z,3.90
2023-06-12T10:55:21.323Z,4.80
2023-06-12T10:57:50.622Z,3.85
2023-06-12T11:00:19.409Z,4.10
2023-06-12T11:02:48.694Z,4.18
2023-06-12T11:05:21.375Z,4.35
2023-06-12T11:07:54.060Z,4.28
2023-06-12T11:10:22.039Z,4.30
2023-06-12T11:12:53.261Z,4.35
2023-06-12T11:15:23.240Z,4.22
2023-06-12T11:17:51.729Z,4.97
2023-06-12T11:24:08.683Z,4.28
2023-06-12T11:26:37.257Z,4.10
2023-06-12T11:29:16.564Z,4.00
2023-06-12T11:31:51.058Z,4.40
2023-06-12T11:34:18.863Z,4.18
2023-06-12T11:36:46.537Z,4.78
2023-06-12T11:41:55.577Z,4.40
2023-06-12T11:44:25.104Z,3.85
2023-06-12T11:46:54.352Z,4.25
2023-06-12T11:49:22.648Z,4.10
2023-06-12T11:51:50.769Z,4.20
2023-06-12T11:54:18.593Z,4.43
2023-06-12T11:59:20.086Z,3.60
2023-06-12T12:01:49.299Z,3.88
2023-06-12T12:04:19.589Z,3.78
2023-06-12T12:06:50.710Z,3.85
2023-06-12T12:09:24.885Z,3.67
2023-06-12T12:11:53.943Z,3.60
2023-06-12T12:14:21.736Z,3.65
2023-06-12T12:16:49.404Z,3.33
2023-06-12T12:19:18.287Z,3.63
2023-06-12T12:21:47.047Z,3.50
2023-06-12T12:24:14.976Z,3.67
2023-06-12T12:26:43.564Z,3.50
2023-06-12T12:29:13.012Z,3.90
2023-06-12T12:31:41.439Z,3.40
2023-06-12T12:34:11.233Z,3.42
2023-06-12T12:36:39.178Z,3.55
2023-06-12T12:39:07.181Z,3.50
2023-06-12T12:41:34.930Z,3.80
2023-06-12T12:44:02.578Z,3.40
2023-06-12T12:46:32.170Z,3.42
2023-06-12T12:49:00.097Z,3.55
2023-06-12T12:51:27.805Z,3.95
2023-06-12T12:53:55.528Z,3.58
2023-06-12T12:56:23.299Z,3.58
2023-06-12T12:58:51.851Z,3.72
2023-06-12T13:01:19.650Z,3.47
2023-06-12T13:03:55.903Z,3.55
2023-06-12T13:06:24.816Z,3.50
2023-06-12T13:08:52.511Z,3.55
2023-06-12T13:11:20.250Z,3.35
2023-06-12T13:13:47.883Z,4.20
2023-06-12T13:16:15.943Z,3.50
2023-06-12T13:18:45.654Z,3.63
2023-06-12T13:21:15.013Z,4.05
2023-06-12T13:23:43.127Z,3.90
2023-06-12T13:26:10.878Z,3.90
2023-06-12T13:28:38.622Z,4.18
2023-06-12T13:31:06.890Z,3.80
2023-06-12T13:33:34.604Z,4.15
2023-06-12T13:36:04.007Z,3.80
2023-06-12T13:38:33.117Z,3.88
2023-06-12T13:41:00.890Z,4.07
2023-06-12T13:43:28.917Z,4.13
2023-06-12T13:45:58.954Z,4.05
2023-06-12T13:48:27.399Z,3.75
2023-06-12T13:50:55.967Z,3.95
2023-06-12T13:53:23.687Z,4.05
2023-06-12T13:55:54.330Z,3.92
2023-06-12T13:58:22.104Z,3.90
2023-06-12T14:00:49.931Z,3.90
2023-06-12T14:03:25.864Z,4.18
2023-06-12T14:05:53.568Z,3.90
2023-06-12T14:08:21.338Z,4.18
2023-06-12T14:10:50.820Z,3.95
2023-06-12T14:13:20.273Z,3.88
2023-06-12T14:15:48.171Z,4.20
2023-06-12T14:18:17.236Z,4.20
2023-06-12T14:20:44.979Z,4.15
2023-06-12T14:23:12.810Z,4.22
2023-06-12T14:25:40.539Z,3.92
2023-06-12T14:28:08.254Z,3.97
2023-06-12T14:30:37.315Z,4.07
2023-06-12T14:33:05.196Z,3.88
2023-06-12T14:35:33.431Z,3.83
2023-06-12T14:38:01.133Z,4.13
2023-06-12T14:40:28.820Z,4.13
2023-06-12T14:42:56.487Z,4.10
2023-06-12T14:45:24.400Z,4.38
2023-06-12T14:47:54.174Z,4.28
2023-06-12T14:50:22.130Z,3.90
2023-06-12T14:52:49.891Z,4.25
2023-06-12T14:55:18.076Z,4.00
2023-06-12T14:57:45.926Z,3.92
2023-06-12T15:00:14.224Z,4.40
2023-06-12T15:02:41.974Z,3.88
2023-06-12T15:05:11.521Z,4.07
2023-06-12T15:07:39.441Z,4.15
2023-06-12T15:10:07.963Z,4.40
2023-06-12T15:12:35.657Z,4.05
2023-06-12T15:15:03.421Z,3.67
2023-06-12T15:17:31.107Z,4.05
2023-06-12T15:19:58.961Z,4.00
2023-06-12T15:22:28.066Z,4.05
2023-06-12T15:24:55.799Z,3.90
2023-06-12T15:27:23.462Z,3.75
2023-06-12T15:29:51.104Z,3.90
2023-06-12T15:32:18.949Z,4.10
2023-06-12T15:34:46.570Z,3.80
2023-06-12T15:37:16.950Z,4.00
2023-06-12T15:39:48.011Z,3.70
2023-06-12T15:42:16.407Z,3.90
2023-06-12T15:44:44.860Z,4.40
2023-06-12T15:47:12.779Z,3.72
2023-06-12T15:49:40.984Z,3.75
2023-06-12T15:52:09.612Z,4.28
2023-06-12T15:54:37.309Z,4.00
2023-06-12T15:57:07.801Z,3.92
2023-06-12T15:59:35.652Z,4.13
2023-06-12T16:02:03.514Z,4.20
2023-06-12T16:04:31.497Z,4.10
2023-06-12T16:06:59.214Z,4.20
2023-06-12T16:09:26.878Z,4.55
2023-06-12T16:11:54.565Z,4.10
2023-06-12T16:14:23.693Z,4.28
2023-06-12T16:16:51.655Z,4.32
2023-06-12T16:19:19.372Z,4.32
2023-06-12T16:21:47.835Z,4.32
2023-06-12T16:24:15.645Z,3.75
2023-06-12T16:26:43.426Z,4.70
2023-06-12T16:29:11.149Z,4.25
2023-06-12T16:31:40.215Z,4.78
2023-06-12T16:34:07.886Z,4.45
2023-06-12T16:36:35.961Z,4.70
2023-06-12T16:39:04.877Z,4.72
2023-06-12T16:41:32.730Z,5.30
2023-06-12T16:44:00.422Z,5.78
2023-06-12T16:46:28.212Z,6.38
2023-06-12T16:48:57.572Z,8.32
2023-06-12T16:51:25.546Z,7.90
2023-06-12T16:53:53.834Z,8.23
2023-06-12T16:56:21.631Z,8.07
2023-06-12T16:58:49.494Z,9.20
2023-06-12T17:01:17.355Z,10.00
2023-06-12T17:03:45.352Z,9.13
2023-06-12T17:06:14.660Z,9.45
2023-06-12T17:08:42.341Z,8.57
2023-06-12T17:11:10.987Z,8.00
2023-06-12T17:13:39.282Z,7.70
2023-06-12T17:16:07.501Z,7.28
2023-06-12T17:18:35.297Z,5.63
2023-06-12T17:21:03.075Z,5.57
2023-06-12T17:23:32.348Z,5.90
2023-06-12T17:26:00.122Z,5.63
2023-06-12T17:28:27.861Z,5.97
2023-06-12T17:30:55.522Z,6.68
2023-06-12T17:33:23.282Z,6.25
2023-06-12T17:35:51.122Z,6.75
2023-06-12T17:38:18.947Z,7.65
2023-06-12T17:40:48.141Z,7.10
2023-06-12T17:43:15.807Z,8.25
2023-06-12T17:45:43.616Z,7.45
2023-06-12T17:48:11.465Z,6.70
2023-06-12T17:50:39.263Z,6.93
2023-06-12T17:53:07.038Z,5.38
2023-06-12T17:55:34.919Z,5.28
2023-06-12T17:58:04.391Z,5.10
2023-06-12T18:00:32.237Z,5.95
2023-06-12T18:02:59.962Z,6.50
2023-06-12T18:05:27.699Z,7.35
2023-06-12T18:07:55.363Z,7.38
2023-06-12T18:10:23.191Z,6.90
2023-06-12T18:12:50.979Z,6.38
2023-06-12T18:15:20.022Z,6.25
2023-06-12T18:17:49.012Z,5.80
2023-06-12T18:20:16.859Z,5.90
2023-06-12T18:22:44.595Z,4.90
2023-06-12T18:25:13.797Z,5.80
2023-06-12T18:27:42.359Z,5.47
2023-06-12T18:30:10.569Z,6.05
2023-06-12T18:32:39.622Z,5.53
2023-06-12T18:35:09.297Z,5.65
2023-06-12T18:37:37.297Z,5.10
2023-06-12T18:40:05.823Z,5.00
2023-06-12T18:42:33.500Z,4.93
2023-06-12T18:45:01.328Z,4.53
2023-06-12T18:47:29.015Z,3.97
2023-06-12T18:49:58.122Z,3.88
2023-06-12T18:52:25.802Z,3.10
2023-06-12T18:54:53.863Z,3.85
2023-06-12T18:57:21.632Z,3.58
2023-06-12T18:59:49.294Z,3.70
2023-06-12T19:02:17.225Z,3.75
2023-06-12T19:04:44.878Z,3.78
2023-06-12T19:07:18.691Z,3.72
2023-06-12T19:09:46.402Z,3.60
2023-06-12T19:12:14.084Z,4.03
2023-06-12T19:14:41.774Z,3.35
2023-06-12T19:17:09.605Z,3.90
2023-06-12T19:19:38.638Z,3.75
2023-06-12T19:22:06.596Z,3.40
2023-06-12T19:24:36.543Z,3.97
2023-06-12T19:27:04.587Z,3.42
2023-06-12T19:29:32.256Z,3.72
2023-06-12T19:32:00.025Z,3.47
2023-06-12T19:34:28.711Z,3.35
2023-06-12T19:36:56.459Z,3.67
2023-06-12T19:39:25.008Z,3.92
2023-06-12T19:41:54.019Z,3.60
2023-06-12T19:44:21.689Z,3.50
2023-06-12T19:46:49.472Z,3.50
2023-06-12T19:49:17.170Z,3.50
2023-06-12T19:51:45.190Z,3.20
2023-06-12T19:54:13.024Z,4.28
2023-06-12T19:56:40.697Z,3.25
2023-06-12T19:59:09.832Z,3.20
2023-06-12T20:01:37.542Z,3.10
2023-06-12T20:04:05.931Z,3.20
2023-06-12T20:06:33.562Z,3.58
2023-06-12T20:09:01.263Z,3.20
2023-06-12T20:11:28.936Z,3.08
2023-06-12T20:13:59.080Z,3.22
2023-06-12T20:16:30.562Z,3.20
2023-06-12T20:19:03.291Z,3.05
2023-06-12T20:21:31.016Z,3.22
2023-06-12T20:23:58.846Z,3.03
2023-06-12T20:26:27.352Z,3.08
2023-06-12T20:28:55.113Z,3.17
2023-06-12T20:31:23.552Z,3.30
2023-06-12T20:33:52.696Z,3.10
2023-06-12T20:36:20.718Z,3.17
2023-06-12T20:38:48.426Z,2.70
2023-06-12T20:41:16.110Z,3.05
2023-06-12T20:43:43.750Z,2.90
2023-06-12T20:46:11.686Z,3.10
2023-06-12T20:48:39.431Z,3.20
2023-06-12T20:51:08.733Z,2.70
2023-06-12T20:53:36.742Z,3.15
2023-06-12T20:56:04.472Z,3.03
2023-06-12T20:58:32.193Z,3.20
2023-06-12T21:00:59.916Z,3.15
2023-06-12T21:03:30.419Z,3.05
2023-06-12T21:05:58.151Z,3.60
2023-06-12T21:08:27.149Z,3.10
2023-06-12T21:10:54.818Z,2.95
2023-06-12T21:13:22.609Z,2.78
2023-06-12T21:15:50.297Z,2.92
2023-06-12T21:18:17.957Z,3.25
2023-06-12T21:20:48.338Z,3.15
2023-06-12T21:23:16.144Z,3.20
2023-06-12T21:25:45.274Z,2.97
2023-06-12T21:28:12.960Z,3.20
2023-06-12T21:30:41.117Z,3.50
2023-06-12T21:33:08.798Z,2.97
2023-06-12T21:35:36.472Z,2.88
2023-06-12T21:38:04.166Z,3.15
2023-06-12T21:40:31.822Z,3.03
2023-06-12T21:43:00.849Z,3.08
2023-06-12T21:45:31.342Z,2.67
2023-06-12T21:47:59.292Z,3.42
2023-06-12T21:50:27.074Z,3.30
2023-06-12T21:52:55.375Z,3.53
2023-06-12T21:55:23.041Z,3.00
2023-06-12T21:57:50.724Z,3.00
2023-06-12T22:00:20.026Z,3.20
2023-06-12T22:02:47.740Z,3.33
2023-06-12T22:05:15.914Z,3.35
2023-06-12T22:07:43.915Z,3.17
2023-06-12T22:10:12.115Z,2.85
2023-06-12T22:12:40.072Z,3.05
2023-06-12T22:15:08.775Z,2.83
2023-06-12T22:17:37.834Z,3.03
2023-06-12T22:20:06.931Z,3.30
2023-06-12T22:22:34.631Z,2.90
2023-06-12T22:25:02.361Z,3.08
2023-06-12T22:27:30.247Z,3.33
2023-06-12T22:29:57.928Z,3.17
2023-06-12T22:32:25.596Z,3.03
2023-06-12T22:34:54.584Z,3.05
2023-06-12T22:37:22.229Z,2.83
2023-06-12T22:39:49.935Z,3.08
2023-06-12T22:42:17.652Z,3.35
2023-06-12T22:44:45.325Z,2.90
2023-06-12T22:47:13.992Z,3.08
2023-06-12T22:49:41.691Z,2.83
2023-06-12T22:52:11.632Z,3.00
2023-06-12T22:54:39.980Z,2.85
2023-06-12T22:57:08.797Z,2.80
2023-06-12T22:59:36.766Z,3.03
2023-06-12T23:02:05.515Z,2.75
2023-06-12T23:04:36.254Z,3.38
2023-06-12T23:07:06.708Z,3.20
2023-06-12T23:09:35.930Z,2.78
2023-06-12T23:12:03.849Z,2.70
2023-06-12T23:14:31.486Z,2.63
2023-06-12T23:16:59.722Z,2.78
2023-06-12T23:19:32.568Z,2.67
2023-06-12T23:22:01.346Z,2.55
2023-06-12T23:24:29.128Z,2.50
2023-06-12T23:26:58.248Z,2.53
2023-06-12T23:29:26.246Z,2.60
2023-06-12T23:31:53.915Z,2.78
2023-06-12T23:34:21.675Z,2.58
2023-06-12T23:36:49.901Z,2.50
2023-06-12T23:39:17.755Z,2.30
2023-06-12T23:41:45.475Z,2.55
2023-06-12T23:44:14.499Z,2.53
2023-06-12T23:46:42.455Z,2.53
2023-06-12T23:49:10.120Z,2.45
2023-06-12T23:51:37.966Z,2.40
2023-06-12T23:54:05.912Z,2.67
2023-06-12T23:56:33.580Z,2.95
2023-06-12T23:59:01.285Z,2.70
